Terminal Aerodrome Forecast
Issued by NWS Sterling, VA

Home | Current Version | Previous Version | Text Only | Print | Product List | Glossary On
Versions: 1 2 3 4 5 6 7 8 9 10 11 12 13 14 15 16 17 18 19 20 21 22 23
000
FTUS41 KLWX 221700
TAFBWI
TAF
KBWI 221737Z 2218/2324 16006KT P6SM BKN050
     FM230000 19005KT P6SM SCT250
     FM230900 VRB03KT P6SM SCT030
     FM231300 21008KT P6SM FEW040 SCT050
     FM232100 23007KT P6SM SCT040 BKN050=

USA.gov is the U.S. government's official web portal to all federal, state and local government web resources and services.